createdAt,value
2023-04-11T00:00:20.116Z,99.99
2023-04-11T00:01:19.245Z,99.99
2023-04-11T00:02:19.170Z,99.99
2023-04-11T00:03:19.269Z,99.99
2023-04-11T00:04:20.051Z,99.99
2023-04-11T00:05:19.895Z,99.99
2023-04-11T00:06:19.823Z,99.99
2023-04-11T00:07:19.979Z,99.99
2023-04-11T00:08:19.028Z,99.99
2023-04-11T00:09:19.573Z,99.99
2023-04-11T00:10:19.188Z,99.99
2023-04-11T00:11:19.030Z,99.99
2023-04-11T00:12:19.961Z,99.99
2023-04-11T00:13:19.111Z,99.99
2023-04-11T00:14:20.397Z,99.99
2023-04-11T00:15:19.321Z,99.99
2023-04-11T00:16:18.976Z,99.99
2023-04-11T00:17:19.813Z,99.99
2023-04-11T00:18:18.902Z,99.99
2023-04-11T00:19:19.279Z,99.99
2023-04-11T00:20:18.872Z,99.99
2023-04-11T00:21:19.641Z,99.99
2023-04-11T00:22:19.052Z,99.99
2023-04-11T00:23:19.018Z,99.99
2023-04-11T00:24:18.892Z,99.99
2023-04-11T00:25:19.396Z,99.99
2023-04-11T00:26:18.781Z,99.99
2023-04-11T00:27:21.274Z,99.99
2023-04-11T00:28:18.846Z,99.99
2023-04-11T00:29:18.829Z,99.99
2023-04-11T00:30:20.344Z,99.99
2023-04-11T00:31:18.749Z,99.99
2023-04-11T00:32:18.795Z,99.99
2023-04-11T00:33:19.568Z,99.99
2023-04-11T00:34:19.120Z,99.99
2023-04-11T00:35:18.650Z,99.99
2023-04-11T00:36:19.755Z,99.99
2023-04-11T00:37:18.823Z,99.99
2023-04-11T00:38:18.631Z,99.99
2023-04-11T00:39:18.637Z,99.99
2023-04-11T00:40:18.618Z,99.99
2023-04-11T00:41:18.637Z,99.99
2023-04-11T00:42:22.872Z,99.99
2023-04-11T00:43:18.652Z,99.99
2023-04-11T00:44:18.693Z,99.99
2023-04-11T00:45:21.419Z,99.99
2023-04-11T00:46:18.893Z,99.99
2023-04-11T00:47:22.063Z,99.99
2023-04-11T00:48:18.452Z,99.99
2023-04-11T00:49:19.103Z,99.99
2023-04-11T00:50:19.364Z,99.99
2023-04-11T00:51:20.228Z,99.99
2023-04-11T00:52:20.138Z,99.99
2023-04-11T00:53:20.147Z,99.99
2023-04-11T00:54:19.273Z,99.99
2023-04-11T00:55:18.395Z,99.99
2023-04-11T00:56:18.517Z,99.99
2023-04-11T00:57:18.416Z,99.99
2023-04-11T00:58:20.043Z,99.99
2023-04-11T00:59:19.019Z,99.99
2023-04-11T01:00:18.546Z,99.99
2023-04-11T01:01:18.366Z,99.99
2023-04-11T01:02:18.635Z,99.99
2023-04-11T01:03:18.458Z,99.99
2023-04-11T01:04:18.558Z,99.99
2023-04-11T01:05:18.337Z,99.99
2023-04-11T01:06:18.338Z,99.99
2023-04-11T01:07:18.219Z,99.99
2023-04-11T01:08:18.283Z,99.99
2023-04-11T01:09:18.781Z,99.99
2023-04-11T01:10:19.099Z,99.99
2023-04-11T01:11:18.509Z,99.99
2023-04-11T01:12:18.296Z,99.99
2023-04-11T01:13:18.759Z,99.99
2023-04-11T01:14:18.480Z,99.99
2023-04-11T01:15:19.094Z,99.99
2023-04-11T01:16:18.173Z,99.99
2023-04-11T01:17:18.116Z,99.99
2023-04-11T01:18:18.042Z,99.99
2023-04-11T01:19:18.965Z,99.99
2023-04-11T01:20:18.843Z,99.99
2023-04-11T01:21:18.068Z,99.99
2023-04-11T01:22:18.141Z,99.99
2023-04-11T01:23:18.761Z,99.99
2023-04-11T01:24:18.301Z,99.99
2023-04-11T01:25:17.946Z,99.99
2023-04-11T01:26:17.993Z,99.99
2023-04-11T01:27:18.944Z,99.99
2023-04-11T01:28:18.913Z,99.99
2023-04-11T01:29:17.922Z,99.99
2023-04-11T01:30:17.962Z,99.99
2023-04-11T01:31:18.938Z,99.99
2023-04-11T01:32:19.242Z,99.99
2023-04-11T01:33:18.621Z,99.99
2023-04-11T01:34:18.014Z,99.99
2023-04-11T01:35:17.854Z,99.99
2023-04-11T01:36:18.582Z,99.99
2023-04-11T01:37:18.741Z,99.99
2023-04-11T01:38:17.795Z,99.99
2023-04-11T01:39:17.884Z,99.99
2023-04-11T01:40:17.725Z,99.99
2023-04-11T01:41:18.468Z,99.99
2023-04-11T01:42:17.812Z,99.99
2023-04-11T01:43:17.856Z,99.99
2023-04-11T01:44:17.874Z,99.99
2023-04-11T01:45:17.877Z,99.99
2023-04-11T01:46:17.661Z,99.99
2023-04-11T01:47:17.727Z,99.99
2023-04-11T01:48:18.536Z,99.99
2023-04-11T01:49:18.616Z,99.99
2023-04-11T01:50:17.644Z,99.99
2023-04-11T01:51:18.435Z,99.99
2023-04-11T01:52:17.633Z,99.99
2023-04-11T01:53:18.488Z,99.99
2023-04-11T01:54:17.619Z,99.99
2023-04-11T01:55:18.435Z,99.99
2023-04-11T01:56:17.555Z,99.99
2023-04-11T01:57:17.519Z,99.99
2023-04-11T01:58:17.592Z,99.99
2023-04-11T01:59:17.793Z,99.99
2023-04-11T02:00:18.052Z,99.99
2023-04-11T02:01:18.283Z,99.99
2023-04-11T02:02:17.578Z,99.99
2023-04-11T02:03:18.025Z,99.99
2023-04-11T02:04:17.558Z,99.99
2023-04-11T02:05:17.482Z,99.99
2023-04-11T02:06:17.386Z,99.99
2023-04-11T02:07:17.625Z,99.99
2023-04-11T02:08:17.404Z,99.99
2023-04-11T02:09:17.333Z,99.99
2023-04-11T02:10:17.785Z,99.99
2023-04-11T02:11:17.927Z,99.99
2023-04-11T02:12:17.378Z,99.99
2023-04-11T02:13:17.450Z,99.99
2023-04-11T02:14:18.322Z,99.99
2023-04-11T02:15:17.358Z,99.99
2023-04-11T02:16:18.377Z,99.99
2023-04-11T02:17:17.419Z,99.99
2023-04-11T02:18:18.213Z,99.99
2023-04-11T02:19:18.074Z,99.99
2023-04-11T02:20:17.327Z,99.99
2023-04-11T02:21:17.551Z,99.99
2023-04-11T02:22:17.241Z,99.99
2023-04-11T02:23:17.283Z,99.99
2023-04-11T02:24:18.359Z,99.99
2023-04-11T02:25:17.218Z,99.99
2023-04-11T02:26:17.385Z,99.99
2023-04-11T02:27:19.405Z,99.99
2023-04-11T02:28:17.671Z,99.99
2023-04-11T02:29:17.970Z,99.99
2023-04-11T02:30:17.064Z,99.99
2023-04-11T02:31:17.355Z,99.99
2023-04-11T02:32:17.175Z,99.99
2023-04-11T02:33:17.647Z,99.99
2023-04-11T02:34:17.100Z,99.99
2023-04-11T02:35:17.815Z,99.99
2023-04-11T02:36:17.074Z,99.99
2023-04-11T02:37:16.970Z,99.99
2023-04-11T02:38:20.902Z,99.99
2023-04-11T02:39:17.326Z,99.99
2023-04-11T02:40:18.041Z,99.99
2023-04-11T02:41:17.439Z,99.99
2023-04-11T02:42:16.894Z,99.99
2023-04-11T02:43:16.985Z,99.99
2023-04-11T02:44:16.953Z,99.99
2023-04-11T02:45:17.222Z,99.99
2023-04-11T02:46:18.419Z,99.99
2023-04-11T02:47:16.951Z,99.99
2023-04-11T02:48:17.094Z,99.99
2023-04-11T02:49:16.851Z,99.99
2023-04-11T02:50:16.913Z,99.99
2023-04-11T02:51:16.913Z,99.99
2023-04-11T02:52:16.937Z,99.99
2023-04-11T02:53:17.231Z,99.99
2023-04-11T02:54:17.647Z,99.99
2023-04-11T02:55:17.094Z,99.99
2023-04-11T02:56:17.034Z,99.99
2023-04-11T02:57:18.532Z,99.99
2023-04-11T02:58:18.173Z,99.99
2023-04-11T02:59:17.190Z,99.99
2023-04-11T03:00:17.076Z,99.99
2023-04-11T03:01:17.062Z,99.99
2023-04-11T03:02:17.186Z,99.99
2023-04-11T03:03:17.406Z,99.99
2023-04-11T03:04:17.214Z,99.99
2023-04-11T03:05:16.732Z,99.99
2023-04-11T03:06:19.359Z,99.99
2023-04-11T03:07:16.566Z,99.99
2023-04-11T03:08:17.078Z,99.99
2023-04-11T03:09:17.206Z,99.99
2023-04-11T03:10:16.794Z,99.99
2023-04-11T03:11:16.559Z,99.99
2023-04-11T03:12:18.368Z,99.99
2023-04-11T03:13:18.929Z,99.99
2023-04-11T03:14:16.528Z,99.99
2023-04-11T03:15:20.457Z,99.99
2023-04-11T03:16:20.174Z,99.99
2023-04-11T03:17:18.000Z,99.99
2023-04-11T03:18:16.554Z,99.99
2023-04-11T03:19:16.417Z,99.99
2023-04-11T03:20:17.308Z,99.99
2023-04-11T03:21:16.404Z,99.99
2023-04-11T03:22:16.341Z,99.99
2023-04-11T03:23:16.361Z,99.99
2023-04-11T03:24:16.343Z,99.99
2023-04-11T03:25:16.412Z,99.99
2023-04-11T03:26:16.337Z,99.99
2023-04-11T03:27:16.279Z,99.99
2023-04-11T03:28:16.426Z,99.99
2023-04-11T03:29:16.423Z,99.99
2023-04-11T03:30:16.248Z,99.99
2023-04-11T03:31:16.502Z,99.99
2023-04-11T03:32:16.918Z,99.99
2023-04-11T03:33:16.313Z,99.99
2023-04-11T03:34:16.486Z,99.99
2023-04-11T03:35:16.201Z,99.99
2023-04-11T03:36:16.458Z,99.99
2023-04-11T03:37:17.999Z,99.99
2023-04-11T03:38:16.580Z,99.99
2023-04-11T03:39:16.108Z,99.99
2023-04-11T03:40:16.520Z,99.99
2023-04-11T03:41:21.810Z,99.99
2023-04-11T03:42:16.723Z,99.99
2023-04-11T03:43:16.113Z,99.99
2023-04-11T03:44:16.468Z,99.99
2023-04-11T03:45:16.118Z,99.99
2023-04-11T03:46:16.157Z,99.99
2023-04-11T03:47:16.086Z,99.99
2023-04-11T03:48:16.735Z,99.99
2023-04-11T03:49:16.987Z,99.99
2023-04-11T03:50:15.916Z,99.99
2023-04-11T03:51:15.930Z,99.99
2023-04-11T03:52:16.322Z,99.99
2023-04-11T03:53:15.945Z,99.99
2023-04-11T03:54:15.934Z,99.99
2023-04-11T03:55:16.545Z,99.99
2023-04-11T03:56:16.499Z,99.99
2023-04-11T03:57:15.948Z,99.99
2023-04-11T03:58:15.853Z,99.99
2023-04-11T03:59:15.808Z,99.99
2023-04-11T04:00:16.177Z,99.99
2023-04-11T04:01:16.820Z,99.99
2023-04-11T04:02:16.121Z,99.99
2023-04-11T04:03:15.897Z,99.99
2023-04-11T04:04:15.783Z,99.99
2023-04-11T04:05:15.769Z,99.99
2023-04-11T04:06:15.758Z,99.99
2023-04-11T04:07:15.894Z,99.99
2023-04-11T04:08:15.683Z,99.99
2023-04-11T04:09:15.765Z,99.99
2023-04-11T04:10:15.662Z,99.99
2023-04-11T04:11:15.952Z,99.99
2023-04-11T04:12:15.817Z,99.99
2023-04-11T04:13:15.763Z,99.99
2023-04-11T04:14:18.251Z,99.99
2023-04-11T04:15:38.345Z,99.99
2023-04-11T04:16:18.985Z,99.99
2023-04-11T04:17:17.304Z,99.99
2023-04-11T04:18:25.185Z,99.99
2023-04-11T04:19:20.245Z,99.99
2023-04-11T04:20:28.792Z,99.99
2023-04-11T04:21:15.923Z,99.99
2023-04-11T04:22:15.649Z,99.99
2023-04-11T04:23:23.666Z,99.99
2023-04-11T04:24:21.096Z,99.99
2023-04-11T04:25:16.697Z,99.99
2023-04-11T04:26:16.594Z,99.99
2023-04-11T04:27:20.032Z,99.99
2023-04-11T04:28:18.193Z,99.99
2023-04-11T04:29:16.982Z,99.99
2023-04-11T04:30:17.055Z,99.99
2023-04-11T04:31:16.830Z,99.99
2023-04-11T04:33:52.497Z,99.99
2023-04-11T04:34:44.124Z,99.99
2023-04-11T04:35:52.798Z,99.99
2023-04-11T04:36:44.376Z,99.99
2023-04-11T04:37:41.932Z,99.99
2023-04-11T04:38:42.891Z,99.99
2023-04-11T04:39:42.384Z,99.99
2023-04-11T04:40:43.181Z,99.99
2023-04-11T04:41:49.270Z,99.99
2023-04-11T04:42:41.729Z,99.99
2023-04-11T04:43:41.736Z,99.99
2023-04-11T04:44:42.538Z,99.99
2023-04-11T04:45:42.742Z,99.99
2023-04-11T04:46:42.576Z,99.99
2023-04-11T04:47:41.702Z,99.99
2023-04-11T04:48:41.706Z,99.99
2023-04-11T04:49:42.502Z,99.99
2023-04-11T04:50:42.485Z,99.99
2023-04-11T04:51:41.618Z,99.99
2023-04-11T04:52:41.678Z,99.99
2023-04-11T04:53:41.597Z,99.99
2023-04-11T04:54:41.662Z,99.99
2023-04-11T04:55:41.581Z,99.99
2023-04-11T04:56:41.557Z,99.99
2023-04-11T04:57:41.724Z,99.99
2023-04-11T04:58:41.526Z,99.99
2023-04-11T04:59:42.365Z,99.99
2023-04-11T05:00:41.941Z,99.99
2023-04-11T05:01:41.565Z,99.99
2023-04-11T05:02:42.428Z,99.99
2023-04-11T05:03:41.689Z,99.99
2023-04-11T05:04:42.389Z,99.99
2023-04-11T05:05:41.974Z,99.99
2023-04-11T05:06:41.454Z,99.99
2023-04-11T05:07:42.269Z,99.99
2023-04-11T05:08:41.401Z,99.99
2023-04-11T05:09:42.269Z,99.99
2023-04-11T05:10:41.360Z,99.99
2023-04-11T05:11:41.305Z,99.99
2023-04-11T05:12:41.315Z,99.99
2023-04-11T05:13:42.346Z,99.99
2023-04-11T05:14:42.346Z,99.99
2023-04-11T05:15:42.171Z,99.99
2023-04-11T05:16:42.096Z,99.99
2023-04-11T05:17:42.246Z,99.99
2023-04-11T05:18:41.268Z,99.99
2023-04-11T05:19:41.257Z,99.99
2023-04-11T05:20:41.213Z,99.99
2023-04-11T05:21:41.202Z,99.99
2023-04-11T05:22:41.974Z,99.99
2023-04-11T05:23:41.279Z,99.99
2023-04-11T05:24:41.212Z,99.99
2023-04-11T05:25:41.242Z,99.99
2023-04-11T05:26:41.106Z,99.99
2023-04-11T05:27:41.321Z,99.99
2023-04-11T05:28:41.116Z,99.99
2023-04-11T05:29:41.079Z,99.99
2023-04-11T05:30:41.076Z,99.99
2023-04-11T05:31:41.030Z,99.99
2023-04-11T05:32:41.441Z,99.99
2023-04-11T05:33:41.574Z,99.99
2023-04-11T05:34:41.055Z,99.99
2023-04-11T05:35:40.995Z,99.99
2023-04-11T05:36:40.983Z,99.99
2023-04-11T05:37:40.989Z,99.99
2023-04-11T05:38:41.007Z,99.99
2023-04-11T05:39:41.343Z,99.99
2023-04-11T05:40:40.930Z,99.99
2023-04-11T05:41:40.894Z,99.99
2023-04-11T05:42:40.871Z,99.99
2023-04-11T05:43:40.893Z,99.99
2023-04-11T05:44:41.659Z,99.99
2023-04-11T05:45:40.863Z,99.99
2023-04-11T05:46:41.688Z,99.99
2023-04-11T05:47:41.653Z,99.99
2023-04-11T05:48:41.030Z,99.99
2023-04-11T05:49:40.956Z,99.99
2023-04-11T05:50:41.045Z,99.99
2023-04-11T05:51:41.087Z,99.99
2023-04-11T05:52:41.627Z,99.99
2023-04-11T05:53:40.752Z,99.99
2023-04-11T05:54:40.713Z,99.99
2023-04-11T05:55:41.592Z,99.99
2023-04-11T05:56:40.679Z,99.99
2023-04-11T05:57:41.677Z,99.99
2023-04-11T05:58:40.650Z,99.99
2023-04-11T05:59:40.667Z,99.99
2023-04-11T06:00:41.618Z,99.99
2023-04-11T06:01:40.627Z,99.99
2023-04-11T06:02:41.615Z,99.99
2023-04-11T06:03:41.792Z,99.99
2023-04-11T06:04:41.717Z,99.99
2023-04-11T06:05:40.592Z,99.99
2023-04-11T06:06:41.299Z,99.99
2023-04-11T06:07:41.562Z,99.79
2023-04-11T06:08:41.367Z,99.48
2023-04-11T06:09:40.507Z,98.82
2023-04-11T06:10:41.428Z,98.16
2023-04-11T06:11:40.503Z,99.08
2023-04-11T06:12:41.234Z,99.85
2023-04-11T06:13:41.392Z,98.27
2023-04-11T06:14:40.811Z,98.32
2023-04-11T06:15:41.236Z,98.93
2023-04-11T06:16:40.489Z,98.05
2023-04-11T06:17:41.298Z,99.12
2023-04-11T06:18:41.205Z,99.63
2023-04-11T06:19:41.336Z,99.17
2023-04-11T06:20:41.244Z,99.68
2023-04-11T06:21:41.131Z,99.99
2023-04-11T06:22:41.316Z,99.99
2023-04-11T06:23:40.312Z,99.17
2023-04-11T06:24:41.121Z,99.27
2023-04-11T06:25:40.352Z,98.97
2023-04-11T06:26:40.494Z,98.46
2023-04-11T06:27:40.312Z,97.29
2023-04-11T06:28:41.249Z,98.07
2023-04-11T06:29:40.258Z,97.49
2023-04-11T06:30:40.405Z,98.16
2023-04-11T06:31:40.965Z,97.64
2023-04-11T06:32:40.372Z,97.64
2023-04-11T06:33:40.139Z,97.80
2023-04-11T06:34:40.957Z,96.83
2023-04-11T06:35:40.185Z,96.44
2023-04-11T06:36:40.287Z,96.38
2023-04-11T06:37:40.143Z,96.94
2023-04-11T06:38:41.002Z,96.47
2023-04-11T06:39:40.174Z,96.98
2023-04-11T06:40:40.853Z,98.52
2023-04-11T06:41:41.012Z,96.64
2023-04-11T06:42:40.029Z,94.70
2023-04-11T06:43:40.046Z,94.84
2023-04-11T06:44:41.018Z,97.34
2023-04-11T06:45:40.935Z,97.49
2023-04-11T06:46:40.221Z,96.72
2023-04-11T06:47:41.064Z,96.66
2023-04-11T06:48:40.181Z,96.91
2023-04-11T06:49:40.005Z,97.32
2023-04-11T06:50:40.195Z,97.57
2023-04-11T06:51:40.669Z,98.80
2023-04-11T06:52:40.929Z,98.50
2023-04-11T06:53:39.915Z,99.26
2023-04-11T06:54:39.956Z,99.88
2023-04-11T06:55:39.943Z,99.88
2023-04-11T06:56:39.854Z,99.99
2023-04-11T06:57:39.862Z,99.99
2023-04-11T06:58:39.881Z,99.99
2023-04-11T06:59:40.074Z,99.99
2023-04-11T07:00:39.828Z,99.99
2023-04-11T07:01:40.152Z,99.99
2023-04-11T07:02:40.124Z,99.99
2023-04-11T07:03:39.882Z,99.99
2023-04-11T07:04:40.164Z,99.99
2023-04-11T07:05:39.867Z,99.99
2023-04-11T07:06:39.696Z,99.99
2023-04-11T07:07:39.843Z,99.99
2023-04-11T07:08:39.712Z,99.99
2023-04-11T07:09:39.760Z,99.99
2023-04-11T07:10:39.724Z,99.99
2023-04-11T07:11:39.856Z,99.99
2023-04-11T07:12:39.927Z,99.99
2023-04-11T07:13:39.623Z,99.99
2023-04-11T07:14:39.675Z,99.99
2023-04-11T07:15:40.065Z,99.99
2023-04-11T07:16:39.607Z,99.99
2023-04-11T07:17:40.149Z,99.99
2023-04-11T07:18:39.550Z,99.99
2023-04-11T07:19:39.526Z,99.79
2023-04-11T07:20:39.569Z,99.68
2023-04-11T07:21:39.514Z,98.82
2023-04-11T07:22:39.486Z,99.02
2023-04-11T07:23:40.239Z,98.92
2023-04-11T07:24:39.852Z,99.99
2023-04-11T07:25:39.677Z,99.54
2023-04-11T07:26:39.450Z,99.89
2023-04-11T07:27:41.119Z,99.79
2023-04-11T07:28:40.247Z,99.99
2023-04-11T07:29:40.076Z,99.99
2023-04-11T07:30:39.723Z,99.99
2023-04-11T07:31:40.411Z,99.99
2023-04-11T07:32:39.465Z,99.99
2023-04-11T07:33:39.659Z,99.99
2023-04-11T07:34:39.490Z,99.99
2023-04-11T07:35:39.452Z,99.99
2023-04-11T07:36:39.351Z,99.99
2023-04-11T07:37:39.352Z,99.99
2023-04-11T07:38:39.482Z,99.99
2023-04-11T07:39:39.557Z,99.99
2023-04-11T07:40:40.123Z,99.99
2023-04-11T07:41:39.309Z,99.99
2023-04-11T07:42:39.262Z,99.99
2023-04-11T07:43:39.228Z,99.99
2023-04-11T07:44:39.286Z,99.99
2023-04-11T07:45:39.223Z,99.99
2023-04-11T07:46:39.114Z,99.99
2023-04-11T07:47:39.331Z,99.99
2023-04-11T07:48:39.585Z,99.99
2023-04-11T07:49:39.564Z,99.99
2023-04-11T07:50:39.589Z,99.99
2023-04-11T07:51:39.050Z,99.99
2023-04-11T07:52:39.077Z,99.99
2023-04-11T07:53:39.060Z,99.99
2023-04-11T07:54:39.046Z,99.99
2023-04-11T07:55:40.003Z,99.99
2023-04-11T07:56:38.961Z,99.99
2023-04-11T07:57:39.048Z,99.99
2023-04-11T07:58:38.994Z,99.99
2023-04-11T07:59:38.986Z,99.99
2023-04-11T08:00:39.116Z,99.99
2023-04-11T08:01:39.000Z,99.99
2023-04-11T08:02:39.129Z,99.99
2023-04-11T08:03:39.090Z,99.99
2023-04-11T08:04:39.234Z,99.99
2023-04-11T08:05:39.004Z,99.99
2023-04-11T08:06:38.932Z,99.99
2023-04-11T08:07:38.893Z,99.99
2023-04-11T08:08:38.777Z,99.99
2023-04-11T08:09:39.554Z,99.99
2023-04-11T08:10:38.943Z,99.99
2023-04-11T08:11:38.868Z,99.99
2023-04-11T08:12:38.735Z,99.99
2023-04-11T08:13:39.727Z,99.99
2023-04-11T08:14:38.808Z,99.99
2023-04-11T08:15:39.676Z,99.99
2023-04-11T08:16:38.794Z,99.99
2023-04-11T08:17:39.558Z,99.99
2023-04-11T08:18:38.752Z,99.99
2023-04-11T08:19:38.664Z,99.99
2023-04-11T08:20:38.707Z,99.99
2023-04-11T08:21:39.532Z,99.99
2023-04-11T08:22:38.726Z,99.99
2023-04-11T08:23:39.510Z,99.99
2023-04-11T08:24:39.480Z,99.99
2023-04-11T08:25:39.502Z,99.99
2023-04-11T08:26:39.469Z,99.99
2023-04-11T08:27:38.542Z,99.99
2023-04-11T08:28:39.514Z,99.99
2023-04-11T08:29:38.770Z,99.99
2023-04-11T08:30:38.627Z,99.99
2023-04-11T08:31:39.441Z,99.99
2023-04-11T08:32:38.644Z,99.99
2023-04-11T08:33:38.921Z,99.99
2023-04-11T08:34:38.480Z,99.99
2023-04-11T08:35:38.473Z,99.99
2023-04-11T08:36:38.415Z,99.99
2023-04-11T08:37:38.401Z,99.99
2023-04-11T08:38:38.769Z,99.99
2023-04-11T08:39:39.216Z,99.99
2023-04-11T08:40:39.325Z,99.99
2023-04-11T08:41:38.344Z,99.99
2023-04-11T08:42:38.368Z,99.99
2023-04-11T08:43:38.328Z,99.99
2023-04-11T08:44:38.333Z,99.99
2023-04-11T08:45:39.188Z,99.99
2023-04-11T08:46:39.389Z,99.99
2023-04-11T08:47:38.620Z,99.99
2023-04-11T08:48:38.299Z,99.99
2023-04-11T08:49:39.269Z,99.99
2023-04-11T08:50:39.174Z,99.99
2023-04-11T08:51:38.213Z,99.99
2023-04-11T08:52:39.230Z,99.99
2023-04-11T08:53:38.239Z,99.99
2023-04-11T08:54:38.283Z,99.99
2023-04-11T08:55:38.168Z,99.99
2023-04-11T08:56:39.121Z,99.99
2023-04-11T08:57:38.611Z,99.99
2023-04-11T08:58:38.102Z,99.99
2023-04-11T08:59:39.147Z,99.99
2023-04-11T09:00:38.824Z,99.99
2023-04-11T09:01:38.162Z,99.99
2023-04-11T09:02:38.113Z,99.99
2023-04-11T09:03:38.137Z,99.99
2023-04-11T09:04:38.027Z,99.99
2023-04-11T09:05:38.086Z,99.99
2023-04-11T09:06:38.028Z,99.99
2023-04-11T09:07:38.030Z,99.99
2023-04-11T09:08:38.089Z,99.99
2023-04-11T09:09:38.853Z,99.99
2023-04-11T09:10:38.141Z,99.99
2023-04-11T09:11:37.975Z,99.99
2023-04-11T09:12:38.946Z,99.99
2023-04-11T09:13:37.946Z,99.99
2023-04-11T09:14:38.965Z,99.99
2023-04-11T09:15:37.890Z,99.99
2023-04-11T09:16:37.839Z,99.99
2023-04-11T09:17:37.987Z,99.99
2023-04-11T09:18:38.790Z,99.99
2023-04-11T09:19:38.729Z,99.99
2023-04-11T09:20:37.832Z,99.99
2023-04-11T09:21:37.846Z,99.99
2023-04-11T09:22:38.643Z,99.99
2023-04-11T09:23:38.523Z,99.99
2023-04-11T09:24:38.680Z,99.99
2023-04-11T09:25:38.600Z,99.99
2023-04-11T09:26:38.538Z,99.99
2023-04-11T09:27:37.997Z,99.99
2023-04-11T09:28:38.030Z,99.99
2023-04-11T09:29:37.666Z,99.99
2023-04-11T09:30:37.707Z,99.99
2023-04-11T09:31:37.638Z,99.99
2023-04-11T09:32:37.679Z,99.99
2023-04-11T09:33:37.736Z,99.99
2023-04-11T09:34:38.301Z,99.99
2023-04-11T09:35:38.169Z,99.99
2023-04-11T09:36:37.583Z,99.99
2023-04-11T09:37:38.464Z,99.99
2023-04-11T09:38:37.641Z,99.99
2023-04-11T09:39:38.527Z,99.99
2023-04-11T09:40:37.513Z,99.99
2023-04-11T09:41:37.552Z,99.99
2023-04-11T09:42:37.691Z,99.99
2023-04-11T09:43:39.975Z,99.99
2023-04-11T09:44:37.756Z,99.99
2023-04-11T09:45:47.736Z,99.99
2023-04-11T09:46:38.794Z,99.99
2023-04-11T09:47:37.465Z,99.99
2023-04-11T09:48:46.714Z,99.99
2023-04-11T09:49:38.451Z,99.99
2023-04-11T09:50:37.447Z,99.99
2023-04-11T09:51:37.445Z,99.99
2023-04-11T09:52:38.293Z,99.99
2023-04-11T09:53:38.197Z,99.99
2023-04-11T09:54:37.295Z,99.99
2023-04-11T09:55:37.838Z,99.99
2023-04-11T09:56:37.860Z,99.99
2023-04-11T09:57:37.311Z,99.99
2023-04-11T09:58:37.970Z,99.99
2023-04-11T09:59:38.137Z,99.99
2023-04-11T10:00:37.993Z,99.99
2023-04-11T10:01:38.142Z,99.99
2023-04-11T10:02:38.201Z,99.99
2023-04-11T10:03:38.048Z,99.99
2023-04-11T10:04:37.328Z,99.99
2023-04-11T10:05:38.106Z,99.99
2023-04-11T10:06:38.044Z,99.99
2023-04-11T10:07:37.343Z,99.99
2023-04-11T10:08:37.260Z,99.99
2023-04-11T10:09:37.320Z,99.99
2023-04-11T10:10:37.738Z,99.99
2023-04-11T10:11:39.993Z,99.99
2023-04-11T10:12:37.253Z,99.99
2023-04-11T10:13:37.056Z,99.99
2023-04-11T10:14:37.152Z,99.99
2023-04-11T10:15:37.887Z,99.99
2023-04-11T10:16:37.900Z,99.99
2023-04-11T10:17:37.220Z,99.99
2023-04-11T10:18:37.048Z,99.99
2023-04-11T10:19:37.080Z,99.99
2023-04-11T10:20:37.197Z,99.99
2023-04-11T10:21:37.000Z,99.54
2023-04-11T10:22:36.967Z,99.95
2023-04-11T10:23:39.104Z,99.18
2023-04-11T10:24:37.892Z,99.59
2023-04-11T10:25:37.064Z,99.63
2023-04-11T10:26:37.100Z,99.99
2023-04-11T10:27:37.007Z,99.99
2023-04-11T10:28:36.984Z,99.99
2023-04-11T10:29:37.073Z,99.99
2023-04-11T10:30:36.823Z,99.99
2023-04-11T10:31:37.075Z,99.99
2023-04-11T10:32:37.352Z,99.99
2023-04-11T10:33:37.139Z,99.99
2023-04-11T10:34:36.818Z,99.99
2023-04-11T10:35:36.835Z,99.99
2023-04-11T10:36:36.718Z,99.99
2023-04-11T10:37:36.672Z,99.99
2023-04-11T10:38:36.801Z,99.99
2023-04-11T10:39:36.684Z,99.99
2023-04-11T10:40:36.787Z,99.99
2023-04-11T10:41:36.851Z,99.99
2023-04-11T10:42:37.778Z,99.99
2023-04-11T10:43:39.185Z,99.99
2023-04-11T10:44:36.787Z,99.99
2023-04-11T10:45:36.979Z,99.99
2023-04-11T10:46:36.629Z,99.99
2023-04-11T10:47:37.415Z,99.99
2023-04-11T10:48:36.596Z,99.99
2023-04-11T10:49:36.663Z,99.99
2023-04-11T10:50:36.723Z,99.99
2023-04-11T10:51:36.625Z,99.99
2023-04-11T10:52:36.515Z,99.99
2023-04-11T10:53:37.432Z,99.99
2023-04-11T10:54:36.562Z,99.99
2023-04-11T10:55:36.649Z,99.99
2023-04-11T10:56:36.496Z,99.99
2023-04-11T10:57:36.527Z,99.99
2023-04-11T10:58:36.500Z,99.99
2023-04-11T10:59:36.404Z,99.99
2023-04-11T11:00:36.691Z,99.99
2023-04-11T11:01:42.990Z,99.99
2023-04-11T11:02:37.581Z,99.84
2023-04-11T11:03:36.589Z,99.99
2023-04-11T11:04:36.407Z,99.99
2023-04-11T11:05:36.350Z,99.99
2023-04-11T11:06:46.784Z,99.79
2023-04-11T11:07:37.288Z,99.99
2023-04-11T11:08:36.256Z,99.99
2023-04-11T11:09:36.231Z,99.99
2023-04-11T11:10:36.230Z,98.51
2023-04-11T11:11:36.196Z,97.07
2023-04-11T11:12:36.343Z,96.66
2023-04-11T11:13:36.298Z,96.25
2023-04-11T11:14:36.164Z,97.28
2023-04-11T11:15:36.152Z,96.04
2023-04-11T11:16:36.202Z,95.02
2023-04-11T11:17:36.155Z,95.64
2023-04-11T11:18:36.111Z,96.15
2023-04-11T11:19:36.349Z,96.45
2023-04-11T11:20:36.249Z,96.56
2023-04-11T11:21:36.053Z,95.84
2023-04-11T11:22:36.139Z,95.43
2023-04-11T11:23:36.476Z,96.62
2023-04-11T11:24:36.075Z,96.92
2023-04-11T11:25:36.128Z,96.51
2023-04-11T11:26:36.201Z,96.51
2023-04-11T11:27:35.967Z,96.10
2023-04-11T11:28:36.134Z,96.45
2023-04-11T11:29:36.180Z,95.64
2023-04-11T11:30:35.958Z,96.04
2023-04-11T11:31:36.066Z,95.12
2023-04-11T11:32:36.911Z,96.25
2023-04-11T11:33:36.821Z,96.56
2023-04-11T11:34:35.908Z,97.07
2023-04-11T11:35:36.142Z,96.97
2023-04-11T11:36:36.077Z,95.64
2023-04-11T11:37:36.038Z,95.74
2023-04-11T11:38:35.832Z,97.28
2023-04-11T11:39:35.900Z,98.20
2023-04-11T11:40:35.877Z,96.66
2023-04-11T11:41:37.096Z,97.58
2023-04-11T11:42:35.792Z,97.69
2023-04-11T11:43:36.602Z,97.28
2023-04-11T11:44:35.865Z,96.56
2023-04-11T11:45:35.901Z,96.45
2023-04-11T11:46:35.776Z,97.38
2023-04-11T11:47:35.869Z,98.20
2023-04-11T11:48:35.698Z,97.69
2023-04-11T11:49:35.674Z,98.10
2023-04-11T11:50:36.041Z,97.58
2023-04-11T11:51:36.138Z,96.66
2023-04-11T11:52:35.667Z,97.23
2023-04-11T11:53:36.413Z,96.00
2023-04-11T11:54:35.652Z,94.46
2023-04-11T11:55:36.467Z,94.46
2023-04-11T11:56:36.375Z,93.85
2023-04-11T11:57:35.616Z,93.74
2023-04-11T11:58:36.436Z,93.85
2023-04-11T11:59:36.353Z,93.70
2023-04-11T12:00:35.534Z,93.19
2023-04-11T12:01:35.550Z,93.35
2023-04-11T12:02:35.737Z,92.02
2023-04-11T12:03:36.568Z,91.61
2023-04-11T12:04:36.554Z,92.79
2023-04-11T12:05:36.392Z,91.67
2023-04-11T12:06:36.438Z,89.78
2023-04-11T12:07:35.439Z,89.23
2023-04-11T12:08:36.244Z,89.23
2023-04-11T12:09:35.386Z,91.38
2023-04-11T12:10:35.491Z,88.68
2023-04-11T12:11:35.436Z,86.63
2023-04-11T12:12:36.227Z,87.71
2023-04-11T12:13:36.369Z,88.02
2023-04-11T12:14:36.245Z,87.02
2023-04-11T12:15:35.322Z,86.10
2023-04-11T12:16:35.698Z,85.69
2023-04-11T12:17:37.040Z,85.69
2023-04-11T12:18:35.341Z,84.06
2023-04-11T12:19:35.379Z,87.32
2023-04-11T12:20:35.293Z,86.71
2023-04-11T12:21:35.279Z,86.77
2023-04-11T12:22:35.666Z,85.92
2023-04-11T12:23:35.266Z,83.67
2023-04-11T12:24:35.296Z,83.87
2023-04-11T12:25:35.850Z,81.32
2023-04-11T12:26:36.098Z,84.28
2023-04-11T12:27:35.977Z,81.16
2023-04-11T12:28:35.906Z,84.16
2023-04-11T12:29:35.993Z,82.63
2023-04-11T12:30:35.972Z,83.59
2023-04-11T12:31:35.878Z,84.61
2023-04-11T12:32:36.058Z,85.53
2023-04-11T12:33:35.089Z,83.32
2023-04-11T12:34:35.801Z,85.30
2023-04-11T12:35:35.970Z,85.24
2023-04-11T12:36:35.959Z,87.70
2023-04-11T12:37:35.783Z,88.04
2023-04-11T12:38:34.992Z,87.98
2023-04-11T12:39:34.951Z,88.90
2023-04-11T12:40:35.113Z,91.26
2023-04-11T12:41:34.937Z,93.10
2023-04-11T12:42:39.159Z,91.50
2023-04-11T12:43:36.612Z,91.91
2023-04-11T12:44:35.089Z,92.32
2023-04-11T12:45:35.168Z,90.48
2023-04-11T12:46:34.959Z,93.45
2023-04-11T12:47:35.050Z,93.66
2023-04-11T12:48:34.926Z,92.53
2023-04-11T12:49:34.867Z,94.37
2023-04-11T12:50:34.861Z,95.29
2023-04-11T12:51:35.125Z,95.65
2023-04-11T12:52:34.836Z,94.87
2023-04-11T12:53:34.952Z,96.51